createdAt,value
2018-09-27T00:02:00.938Z,1.13
2018-09-27T00:04:29.635Z,1.00
2018-09-27T00:06:58.328Z,0.83
2018-09-27T00:09:27.014Z,1.00
2018-09-27T00:11:55.705Z,1.00
2018-09-27T00:14:24.389Z,1.23
2018-09-27T00:16:53.095Z,1.33
2018-09-27T00:19:21.804Z,0.97
2018-09-27T00:21:50.490Z,1.27
2018-09-27T00:24:19.230Z,1.23
2018-09-27T00:26:47.966Z,0.80
2018-09-27T00:29:16.847Z,1.02
2018-09-27T00:31:45.627Z,1.27
2018-09-27T00:34:14.358Z,0.80
2018-09-27T00:36:43.062Z,1.10
2018-09-27T00:39:13.079Z,1.00
2018-09-27T00:41:41.806Z,1.20
2018-09-27T00:44:10.654Z,1.17
2018-09-27T00:46:39.347Z,1.00
2018-09-27T00:49:08.125Z,1.00
2018-09-27T00:51:36.847Z,1.10
2018-09-27T00:54:05.636Z,1.00
2018-09-27T00:56:34.346Z,1.20
2018-09-27T00:59:03.048Z,1.10
2018-09-27T01:01:31.777Z,1.03
2018-09-27T01:04:00.466Z,1.17
2018-09-27T01:06:29.422Z,0.90
2018-09-27T01:08:58.121Z,1.10
2018-09-27T01:11:26.810Z,1.10
2018-09-27T01:13:55.516Z,1.10
2018-09-27T01:19:23.821Z,0.90
2018-09-27T01:21:52.507Z,0.87
2018-09-27T01:24:21.198Z,1.03
2018-09-27T01:26:49.893Z,1.00
2018-09-27T01:29:18.643Z,0.90
2018-09-27T01:31:47.408Z,1.00
2018-09-27T01:34:16.102Z,1.17
2018-09-27T01:36:44.788Z,1.00
2018-09-27T01:39:13.485Z,0.80
2018-09-27T01:41:42.191Z,0.90
2018-09-27T01:44:10.901Z,1.10
2018-09-27T01:46:39.591Z,1.10
2018-09-27T01:49:08.292Z,1.20
2018-09-27T01:51:37.003Z,1.00
2018-09-27T01:54:05.730Z,1.07
2018-09-27T01:56:34.418Z,1.07
2018-09-27T01:59:03.124Z,1.07
2018-09-27T02:01:31.815Z,1.00
2018-09-27T02:04:00.518Z,0.97
2018-09-27T02:06:29.204Z,1.20
2018-09-27T02:08:57.906Z,1.10
2018-09-27T02:11:26.601Z,1.10
2018-09-27T02:13:55.289Z,1.03
2018-09-27T02:16:23.978Z,1.00
2018-09-27T02:18:52.678Z,0.90
2018-09-27T02:21:21.393Z,0.93
2018-09-27T02:23:50.082Z,0.90
2018-09-27T02:26:18.778Z,1.17
2018-09-27T02:28:47.779Z,1.00
2018-09-27T02:31:16.419Z,0.90
2018-09-27T02:33:45.160Z,1.20
2018-09-27T02:36:13.848Z,1.20
2018-09-27T02:38:42.543Z,1.00
2018-09-27T02:41:11.232Z,1.13
2018-09-27T02:43:39.915Z,0.93
2018-09-27T02:46:08.690Z,1.30
2018-09-27T02:48:37.381Z,1.03
2018-09-27T02:51:06.063Z,0.90
2018-09-27T02:53:34.740Z,0.90
2018-09-27T02:56:03.421Z,1.10
2018-09-27T02:58:32.105Z,0.93
2018-09-27T03:01:00.784Z,1.40
2018-09-27T03:03:29.491Z,1.20
2018-09-27T03:05:58.175Z,1.10
2018-09-27T03:08:26.872Z,1.23
2018-09-27T03:10:55.617Z,1.30
2018-09-27T03:13:24.503Z,1.10
2018-09-27T03:15:53.155Z,1.07
2018-09-27T03:18:22.158Z,1.10
2018-09-27T03:20:50.891Z,1.03
2018-09-27T03:23:19.527Z,1.10
2018-09-27T03:25:48.907Z,1.30
2018-09-27T03:28:17.594Z,1.30
2018-09-27T03:30:46.278Z,1.10
2018-09-27T03:33:15.032Z,1.03
2018-09-27T03:35:43.733Z,1.00
2018-09-27T03:38:12.455Z,1.10
2018-09-27T03:40:41.162Z,0.97
2018-09-27T03:43:09.832Z,1.00
2018-09-27T03:45:38.563Z,0.90
2018-09-27T03:48:07.275Z,1.43
2018-09-27T03:50:35.979Z,1.00
2018-09-27T03:53:04.668Z,1.03
2018-09-27T03:55:33.836Z,1.20
2018-09-27T03:58:02.529Z,1.40
2018-09-27T04:00:31.322Z,1.00
2018-09-27T04:03:00.040Z,1.40
2018-09-27T04:05:28.771Z,1.13
2018-09-27T04:07:57.461Z,1.20
2018-09-27T04:10:26.147Z,0.90
2018-09-27T04:12:54.836Z,1.10
2018-09-27T04:15:23.688Z,1.37
2018-09-27T04:17:52.376Z,1.10
2018-09-27T04:20:21.080Z,1.33
2018-09-27T04:22:49.767Z,1.23
2018-09-27T04:25:19.468Z,1.50
2018-09-27T04:27:49.102Z,1.37
2018-09-27T04:30:17.840Z,1.47
2018-09-27T04:32:47.371Z,1.87
2018-09-27T04:35:16.064Z,1.50
2018-09-27T04:37:44.757Z,1.67
2018-09-27T04:40:13.461Z,1.40
2018-09-27T04:42:42.140Z,1.70
2018-09-27T04:45:10.831Z,1.53
2018-09-27T04:47:39.521Z,1.37
2018-09-27T04:50:08.210Z,1.50
2018-09-27T04:52:36.899Z,1.57
2018-09-27T04:55:12.369Z,1.80
2018-09-27T04:57:41.244Z,2.30
2018-09-27T05:00:09.969Z,2.00
2018-09-27T05:02:38.620Z,1.70
2018-09-27T05:05:07.399Z,1.90
2018-09-27T05:07:36.083Z,2.03
2018-09-27T05:10:04.915Z,1.67
2018-09-27T05:12:33.735Z,1.73
2018-09-27T05:15:02.437Z,1.70
2018-09-27T05:17:31.124Z,1.93
2018-09-27T05:19:59.913Z,2.00
2018-09-27T05:22:28.596Z,2.00
2018-09-27T05:24:57.288Z,1.87
2018-09-27T05:27:25.973Z,1.90
2018-09-27T05:29:54.648Z,2.20
2018-09-27T05:32:23.340Z,1.80
2018-09-27T05:34:52.023Z,1.90
2018-09-27T05:37:20.709Z,1.87
2018-09-27T05:39:49.937Z,1.90
2018-09-27T05:42:18.615Z,2.23
2018-09-27T05:44:47.304Z,2.27
2018-09-27T05:47:15.988Z,3.00
2018-09-27T05:49:44.709Z,2.27
2018-09-27T05:52:13.404Z,2.17
2018-09-27T05:54:42.091Z,2.43
2018-09-27T05:57:10.768Z,2.50
2018-09-27T05:59:39.451Z,2.30
2018-09-27T06:02:08.319Z,2.20
2018-09-27T06:04:36.811Z,2.70
2018-09-27T06:07:05.508Z,2.90
2018-09-27T06:09:34.234Z,2.60
2018-09-27T06:12:02.877Z,2.80
2018-09-27T06:14:31.602Z,3.10
2018-09-27T06:17:00.275Z,2.33
2018-09-27T06:19:28.986Z,2.57
2018-09-27T06:21:57.687Z,2.80
2018-09-27T06:24:26.403Z,2.57
2018-09-27T06:26:55.141Z,2.23
2018-09-27T06:29:23.855Z,2.60
2018-09-27T06:31:52.583Z,3.10
2018-09-27T06:34:21.255Z,2.30
2018-09-27T06:36:50.561Z,2.80
2018-09-27T06:39:20.449Z,2.77
2018-09-27T06:41:49.144Z,2.50
2018-09-27T06:44:17.814Z,2.57
2018-09-27T06:46:46.500Z,2.50
2018-09-27T06:49:15.181Z,2.80
2018-09-27T06:51:43.869Z,2.80
2018-09-27T06:54:12.557Z,2.80
2018-09-27T06:56:41.264Z,2.60
2018-09-27T06:59:09.917Z,2.90
2018-09-27T07:01:38.614Z,2.57
2018-09-27T07:04:07.324Z,2.77
2018-09-27T07:06:36.021Z,3.00
2018-09-27T07:09:07.883Z,2.50
2018-09-27T07:11:36.570Z,3.03
2018-09-27T07:14:05.252Z,2.80
2018-09-27T07:16:33.946Z,3.73
2018-09-27T07:19:02.795Z,2.93
2018-09-27T07:21:31.484Z,2.97
2018-09-27T07:24:00.274Z,3.30
2018-09-27T07:26:28.979Z,2.93
2018-09-27T07:28:57.631Z,3.00
2018-09-27T07:31:26.311Z,3.40
2018-09-27T07:33:55.031Z,3.00
2018-09-27T07:36:23.769Z,2.80
2018-09-27T07:38:52.400Z,3.30
2018-09-27T07:41:21.181Z,3.27
2018-09-27T07:43:49.864Z,3.17
2018-09-27T07:46:18.552Z,2.93
2018-09-27T07:48:47.239Z,3.13
2018-09-27T07:51:15.932Z,2.90
2018-09-27T07:53:44.612Z,3.20
2018-09-27T07:56:13.296Z,3.43
2018-09-27T07:58:41.975Z,2.73
2018-09-27T08:01:10.707Z,2.60
2018-09-27T08:03:39.502Z,3.10
2018-09-27T08:06:08.192Z,3.80
2018-09-27T08:08:36.932Z,2.97
2018-09-27T08:11:05.618Z,3.00
2018-09-27T08:13:34.248Z,3.30
2018-09-27T08:16:03.704Z,3.30
2018-09-27T08:18:32.372Z,2.77
2018-09-27T08:21:01.186Z,2.87
2018-09-27T08:23:29.751Z,3.43
2018-09-27T08:25:58.471Z,3.20
2018-09-27T08:28:27.146Z,3.67
2018-09-27T08:30:55.986Z,3.37
2018-09-27T08:33:24.571Z,3.70
2018-09-27T08:35:53.267Z,2.90
2018-09-27T08:38:22.024Z,3.33
2018-09-27T08:40:51.563Z,3.23
2018-09-27T08:43:20.240Z,2.90
2018-09-27T08:45:49.016Z,3.27
2018-09-27T08:48:17.643Z,3.40
2018-09-27T08:50:46.331Z,2.90
2018-09-27T08:53:15.013Z,3.30
2018-09-27T08:55:43.778Z,3.13
2018-09-27T08:58:12.421Z,3.00
2018-09-27T09:00:41.123Z,2.90
2018-09-27T09:03:09.810Z,3.10
2018-09-27T09:05:38.529Z,3.10
2018-09-27T09:08:07.554Z,3.40
2018-09-27T09:10:36.231Z,2.90
2018-09-27T09:13:04.918Z,3.23
2018-09-27T09:15:33.612Z,3.47
2018-09-27T09:18:02.281Z,3.77
2018-09-27T09:20:30.952Z,3.70
2018-09-27T09:22:59.632Z,3.60
2018-09-27T09:25:28.325Z,3.87
2018-09-27T09:27:57.015Z,3.43
2018-09-27T09:30:25.683Z,4.07
2018-09-27T09:32:54.359Z,5.13
2018-09-27T09:35:23.043Z,4.10
2018-09-27T09:37:52.050Z,3.70
2018-09-27T09:40:20.718Z,3.80
2018-09-27T09:42:49.408Z,4.93
2018-09-27T09:45:18.087Z,4.60
2018-09-27T09:47:46.779Z,4.60
2018-09-27T09:50:15.465Z,5.37
2018-09-27T09:52:45.212Z,5.20
2018-09-27T09:55:13.895Z,5.70
2018-09-27T09:57:42.584Z,4.77
2018-09-27T10:00:11.267Z,4.23
2018-09-27T10:02:39.959Z,4.93
2018-09-27T10:05:08.653Z,5.13
2018-09-27T10:07:37.339Z,4.67
2018-09-27T10:10:06.029Z,5.23
2018-09-27T10:12:34.736Z,4.60
2018-09-27T10:15:03.417Z,4.60
2018-09-27T10:17:32.099Z,4.90
2018-09-27T10:20:00.783Z,4.47
2018-09-27T10:22:29.467Z,5.07
2018-09-27T10:24:58.147Z,5.00
2018-09-27T10:27:26.854Z,5.00
2018-09-27T10:29:55.540Z,5.20
2018-09-27T10:32:24.247Z,5.03
2018-09-27T10:34:52.925Z,4.73
2018-09-27T10:37:22.411Z,5.40
2018-09-27T10:39:51.205Z,5.10
2018-09-27T10:42:19.925Z,5.40
2018-09-27T10:44:48.633Z,4.70
2018-09-27T10:47:17.295Z,4.30
2018-09-27T10:49:45.991Z,5.10
2018-09-27T10:52:14.696Z,4.90
2018-09-27T10:54:43.414Z,5.60
2018-09-27T10:57:12.186Z,4.27
2018-09-27T10:59:40.930Z,5.50
2018-09-27T11:02:09.612Z,5.20
2018-09-27T11:04:38.336Z,5.13
2018-09-27T11:07:07.096Z,5.00
2018-09-27T11:09:35.803Z,5.13
2018-09-27T11:12:04.499Z,4.80
2018-09-27T11:14:33.183Z,4.33
2018-09-27T11:17:01.875Z,3.80
2018-09-27T11:19:30.564Z,4.10
2018-09-27T11:21:59.252Z,4.10
2018-09-27T11:24:27.931Z,4.10
2018-09-27T11:26:56.622Z,3.30
2018-09-27T11:29:30.755Z,4.47
2018-09-27T11:32:04.864Z,3.40
2018-09-27T11:34:33.539Z,3.77
2018-09-27T11:37:02.257Z,4.03
2018-09-27T11:39:30.948Z,4.37
2018-09-27T11:41:59.775Z,3.53
2018-09-27T11:44:28.447Z,3.80
2018-09-27T11:46:57.137Z,5.30
2018-09-27T11:49:25.867Z,4.70
2018-09-27T11:51:54.509Z,5.20
2018-09-27T11:54:23.179Z,5.40
2018-09-27T11:56:51.863Z,5.40
2018-09-27T11:59:20.559Z,4.63
2018-09-27T12:01:49.247Z,4.67
2018-09-27T12:04:17.980Z,5.50
2018-09-27T12:06:46.752Z,5.40
2018-09-27T12:09:15.398Z,5.00
2018-09-27T12:11:44.063Z,4.77
2018-09-27T12:14:13.499Z,4.50
2018-09-27T12:16:42.293Z,4.90
2018-09-27T12:19:10.887Z,4.87
2018-09-27T12:21:39.559Z,3.80
2018-09-27T12:24:08.289Z,3.77
2018-09-27T12:26:36.964Z,4.23
2018-09-27T12:29:05.676Z,4.47
2018-09-27T12:31:34.393Z,3.87
2018-09-27T12:34:03.144Z,4.33
2018-09-27T12:36:31.765Z,4.07
2018-09-27T12:39:00.575Z,3.43
2018-09-27T12:41:29.169Z,4.53
2018-09-27T12:43:57.870Z,4.57
2018-09-27T12:46:26.646Z,4.10
2018-09-27T12:48:55.256Z,3.80
2018-09-27T12:51:23.944Z,3.83
2018-09-27T12:53:53.515Z,4.87
2018-09-27T12:56:22.196Z,3.90
2018-09-27T12:58:50.941Z,4.00
2018-09-27T13:01:20.527Z,3.73
2018-09-27T13:03:49.302Z,3.03
2018-09-27T13:06:17.960Z,3.10
2018-09-27T13:08:46.804Z,3.53
2018-09-27T13:11:15.336Z,3.40
2018-09-27T13:13:44.071Z,3.23
2018-09-27T13:16:12.799Z,2.60
2018-09-27T13:18:41.523Z,2.60
2018-09-27T13:21:10.261Z,2.60
2018-09-27T13:23:38.946Z,2.37
2018-09-27T13:26:07.804Z,2.70
2018-09-27T13:28:36.620Z,2.30
2018-09-27T13:31:05.525Z,2.30
2018-09-27T13:33:34.223Z,2.22
2018-09-27T13:36:02.905Z,2.27
2018-09-27T13:38:31.598Z,2.27
2018-09-27T13:41:00.447Z,2.03
2018-09-27T13:43:29.266Z,1.90
2018-09-27T13:45:58.253Z,1.63
2018-09-27T13:48:26.939Z,1.63
2018-09-27T13:50:55.664Z,1.87
2018-09-27T13:53:24.445Z,1.90
2018-09-27T13:55:54.348Z,1.47
2018-09-27T13:58:23.943Z,1.50
2018-09-27T14:00:52.649Z,2.03
2018-09-27T14:03:21.315Z,1.77
2018-09-27T14:05:50.013Z,1.30
2018-09-27T14:08:18.836Z,1.40
2018-09-27T14:10:47.618Z,1.57
2018-09-27T14:13:16.312Z,1.50
2018-09-27T14:15:45.018Z,1.43
2018-09-27T14:18:13.906Z,1.70
2018-09-27T14:20:43.491Z,1.40
2018-09-27T14:23:12.231Z,1.70
2018-09-27T14:25:41.169Z,1.80
2018-09-27T14:28:11.119Z,1.60
2018-09-27T14:30:39.999Z,1.50
2018-09-27T14:33:08.955Z,1.23
2018-09-27T14:35:37.974Z,1.17
2018-09-27T14:38:07.012Z,1.07
2018-09-27T14:40:35.907Z,1.37
2018-09-27T14:43:04.584Z,1.30
2018-09-27T14:45:33.265Z,1.17
2018-09-27T14:48:02.468Z,1.10
2018-09-27T14:50:31.382Z,1.23
2018-09-27T14:53:00.043Z,1.20
2018-09-27T14:55:28.817Z,1.20
2018-09-27T14:57:57.503Z,1.00
2018-09-27T15:00:26.593Z,0.90
2018-09-27T15:02:56.188Z,1.00
2018-09-27T15:05:26.031Z,0.90
2018-09-27T15:07:54.708Z,1.00
2018-09-27T15:10:23.734Z,0.87
2018-09-27T15:12:52.415Z,1.23
2018-09-27T15:15:21.873Z,1.10
2018-09-27T15:17:51.330Z,1.00
2018-09-27T15:20:20.749Z,0.90
2018-09-27T15:22:49.440Z,0.90
2018-09-27T15:25:18.156Z,0.80
2018-09-27T15:27:46.819Z,1.20
2018-09-27T15:30:15.876Z,0.70
2018-09-27T15:32:45.586Z,0.70
2018-09-27T15:35:16.243Z,0.70
2018-09-27T15:37:45.592Z,0.70
2018-09-27T15:40:14.311Z,0.70
2018-09-27T15:42:43.037Z,0.87
2018-09-27T15:45:11.861Z,0.80
2018-09-27T15:47:40.539Z,0.70
2018-09-27T15:50:09.569Z,0.80
2018-09-27T15:52:39.760Z,0.63
2018-09-27T15:55:09.796Z,1.00
2018-09-27T15:57:38.480Z,0.90
2018-09-27T16:00:07.549Z,0.70
2018-09-27T16:02:37.414Z,0.60
2018-09-27T16:05:06.641Z,0.60
2018-09-27T16:07:35.320Z,1.17
2018-09-27T16:10:05.349Z,1.20
2018-09-27T16:12:34.127Z,0.70
2018-09-27T16:15:03.688Z,1.00
2018-09-27T16:17:32.494Z,0.87
2018-09-27T16:20:01.232Z,1.00
2018-09-27T16:22:30.000Z,0.90
2018-09-27T16:24:58.726Z,0.80
2018-09-27T16:27:27.405Z,0.87
2018-09-27T16:29:56.176Z,1.00
2018-09-27T16:32:25.434Z,0.80
2018-09-27T16:34:55.335Z,0.90
2018-09-27T16:37:24.930Z,0.90
2018-09-27T16:39:53.612Z,0.83
2018-09-27T16:42:22.525Z,0.90
2018-09-27T16:44:51.634Z,0.80
2018-09-27T16:47:20.662Z,1.00
2018-09-27T16:49:49.637Z,0.93
2018-09-27T16:52:18.513Z,1.20
2018-09-27T16:54:47.207Z,1.00
2018-09-27T16:57:15.907Z,1.23
2018-09-27T16:59:44.650Z,2.20
2018-09-27T17:02:13.519Z,1.27
2018-09-27T17:04:42.198Z,2.10
2018-09-27T17:07:11.128Z,1.83
2018-09-27T17:09:39.960Z,1.60
2018-09-27T17:12:08.712Z,1.87
2018-09-27T17:14:37.519Z,2.43
2018-09-27T17:17:06.411Z,2.60
2018-09-27T17:19:35.284Z,6.10
2018-09-27T17:22:03.967Z,4.03
2018-09-27T17:24:32.729Z,3.60
2018-09-27T17:27:01.353Z,1.63
2018-09-27T17:29:30.150Z,1.90
2018-09-27T17:31:58.941Z,1.80
2018-09-27T17:34:27.644Z,1.60
2018-09-27T17:36:56.291Z,1.83
2018-09-27T17:39:25.469Z,1.90
2018-09-27T17:41:54.165Z,2.00
2018-09-27T17:44:22.835Z,2.00
2018-09-27T17:46:51.516Z,2.80
2018-09-27T17:49:20.294Z,3.23
2018-09-27T17:51:49.056Z,3.30
2018-09-27T17:54:17.730Z,3.20
2018-09-27T17:56:46.469Z,2.70
2018-09-27T17:59:15.171Z,2.77
2018-09-27T18:01:43.972Z,2.80
2018-09-27T18:04:12.589Z,2.73
2018-09-27T18:06:41.319Z,3.90
2018-09-27T18:09:11.328Z,3.87
2018-09-27T18:11:40.823Z,6.07
2018-09-27T18:14:09.500Z,5.30
2018-09-27T18:16:38.282Z,5.87
2018-09-27T18:19:06.945Z,6.03
2018-09-27T18:21:35.650Z,4.73
2018-09-27T18:24:04.346Z,5.50
2018-09-27T18:26:33.081Z,3.73
2018-09-27T18:29:01.772Z,2.90
2018-09-27T18:31:30.482Z,3.37
2018-09-27T18:33:59.143Z,4.40
2018-09-27T18:36:27.847Z,4.47
2018-09-27T18:38:56.747Z,5.30
2018-09-27T18:41:26.013Z,6.53
2018-09-27T18:43:54.723Z,7.50
2018-09-27T18:46:23.409Z,8.40
2018-09-27T18:48:52.084Z,7.10
2018-09-27T18:51:20.829Z,10.27
2018-09-27T18:53:49.511Z,11.63
2018-09-27T18:56:18.208Z,9.00
2018-09-27T18:58:46.932Z,7.70
2018-09-27T19:01:15.687Z,5.27
2018-09-27T19:03:44.369Z,4.77
2018-09-27T19:06:13.090Z,4.67
2018-09-27T19:08:41.847Z,3.60
2018-09-27T19:11:10.604Z,4.37
2018-09-27T19:13:39.269Z,4.77
2018-09-27T19:16:07.978Z,4.63
2018-09-27T19:18:36.651Z,3.97
2018-09-27T19:21:05.505Z,4.17
2018-09-27T19:23:34.172Z,2.87
2018-09-27T19:26:03.013Z,2.83
2018-09-27T19:28:31.702Z,3.20
2018-09-27T19:31:00.386Z,2.60
2018-09-27T19:33:29.072Z,2.60
2018-09-27T19:35:57.787Z,2.80
2018-09-27T19:38:26.484Z,2.70
2018-09-27T19:40:55.187Z,2.97
2018-09-27T19:43:23.867Z,2.80
2018-09-27T19:45:52.548Z,3.03
2018-09-27T19:48:21.232Z,2.93
2018-09-27T19:50:50.003Z,2.67
2018-09-27T19:53:18.749Z,3.30
2018-09-27T19:55:47.410Z,3.53
2018-09-27T19:58:16.171Z,2.90
2018-09-27T20:00:44.812Z,2.77
2018-09-27T20:03:13.535Z,2.47
2018-09-27T20:05:42.261Z,2.40
2018-09-27T20:08:11.002Z,2.00
2018-09-27T20:10:39.926Z,2.10
2018-09-27T20:13:08.535Z,2.20
2018-09-27T20:15:37.221Z,2.17
2018-09-27T20:18:05.895Z,2.20
2018-09-27T20:20:34.633Z,2.10
2018-09-27T20:23:03.467Z,1.90
2018-09-27T20:25:32.101Z,2.30
2018-09-27T20:28:00.871Z,2.10
2018-09-27T20:30:29.508Z,2.13
2018-09-27T20:32:58.199Z,2.07
2018-09-27T20:35:26.892Z,1.90
2018-09-27T20:37:55.583Z,1.87
2018-09-27T20:40:24.261Z,1.80
2018-09-27T20:42:52.954Z,1.70
2018-09-27T20:45:21.640Z,1.43
2018-09-27T20:47:50.349Z,1.43
2018-09-27T20:50:19.035Z,1.20
2018-09-27T20:52:47.724Z,1.50
2018-09-27T20:55:16.396Z,1.40
2018-09-27T20:57:45.085Z,1.23
2018-09-27T21:00:13.755Z,3.60
2018-09-27T21:02:42.468Z,5.27
2018-09-27T21:05:11.171Z,2.20
2018-09-27T21:07:39.864Z,2.20
2018-09-27T21:10:08.555Z,2.23
2018-09-27T21:12:37.243Z,1.50
2018-09-27T21:15:05.984Z,1.43
2018-09-27T21:17:34.683Z,1.37
2018-09-27T21:20:03.373Z,0.90
2018-09-27T21:22:32.070Z,1.40
2018-09-27T21:25:00.750Z,1.37
2018-09-27T21:27:29.441Z,1.30
2018-09-27T21:29:58.123Z,1.30
2018-09-27T21:32:27.282Z,1.17
2018-09-27T21:34:55.960Z,1.20
2018-09-27T21:37:24.660Z,1.17
2018-09-27T21:39:53.549Z,1.40
2018-09-27T21:42:22.246Z,1.20
2018-09-27T21:44:50.953Z,1.00
2018-09-27T21:47:19.660Z,1.00
2018-09-27T21:49:48.402Z,1.07
2018-09-27T21:52:17.046Z,1.17
2018-09-27T21:54:45.737Z,1.50
2018-09-27T21:57:14.448Z,1.27
2018-09-27T21:59:43.119Z,1.20
2018-09-27T22:02:11.814Z,1.20
2018-09-27T22:04:40.482Z,0.97
2018-09-27T22:07:09.172Z,1.07
2018-09-27T22:09:37.860Z,1.13
2018-09-27T22:12:06.580Z,1.20
2018-09-27T22:14:35.264Z,1.00
2018-09-27T22:17:04.084Z,1.07
2018-09-27T22:19:32.792Z,1.10
2018-09-27T22:22:01.529Z,1.17
2018-09-27T22:24:30.202Z,1.10
2018-09-27T22:26:58.897Z,1.10
2018-09-27T22:29:27.627Z,0.97
2018-09-27T22:31:56.355Z,1.03
2018-09-27T22:34:25.035Z,0.93
2018-09-27T22:36:53.900Z,0.70
2018-09-27T22:39:22.648Z,0.70
2018-09-27T22:41:51.376Z,0.80
2018-09-27T22:44:20.074Z,0.90
2018-09-27T22:46:48.758Z,0.70
2018-09-27T22:49:17.448Z,1.17
2018-09-27T22:51:46.174Z,0.83
2018-09-27T22:54:14.865Z,0.70
2018-09-27T22:56:43.567Z,0.70
2018-09-27T22:59:12.260Z,0.70
2018-09-27T23:01:40.949Z,0.60
2018-09-27T23:04:09.636Z,0.70
2018-09-27T23:06:38.310Z,0.60
2018-09-27T23:09:07.411Z,0.80
2018-09-27T23:11:36.099Z,0.80
2018-09-27T23:14:05.301Z,0.80
2018-09-27T23:16:33.976Z,0.90
2018-09-27T23:19:02.875Z,0.80
2018-09-27T23:21:31.591Z,0.80
2018-09-27T23:24:00.334Z,0.80
2018-09-27T23:26:29.084Z,0.60
2018-09-27T23:28:58.097Z,0.90
2018-09-27T23:31:27.258Z,0.80
2018-09-27T23:33:55.952Z,0.80
2018-09-27T23:36:24.624Z,0.97
2018-09-27T23:38:53.360Z,1.10
2018-09-27T23:41:22.072Z,0.73
2018-09-27T23:43:50.764Z,0.90
2018-09-27T23:46:19.431Z,0.80
2018-09-27T23:48:48.111Z,1.00
2018-09-27T23:51:16.775Z,0.80
2018-09-27T23:53:45.464Z,0.97
2018-09-27T23:56:14.183Z,0.90
2018-09-27T23:58:42.885Z,0.97
